EDDPEDDC

Guest
Details From EDDP - Leipzig-halle
To EDDC - Dresden
Flight Number -
Tags Generated
Created
Modified
Stats Distance 61 nm / 113 km
Max Altitude 0 ft / 0 m
Waypoints 2
Social Downloads 4
Likes 0
Share VATSIM

Download

Looking for another format? Having issues loading an existing format? Contact us
Advertisement - Login to hide

Notes

Generated

Route

EDDP EDDC

ID Type Via Altitude Latitude Longitude Leg Dist Tot Dist Heading (true) Name
O EDDP APT - 0 ft / 0 m 51.41160˚ 12.20459˚ - 0 nm - -
O EDDC APT - 0 ft / 0 m 51.12425˚ 13.75544˚ 60 nm 60 nm 106° / 107° -

Altitude Profile

Advertisement - Login to hide

EDDP

Details ICAO EDDP (LEJ)
Name Leipzig-Halle
Region Germany - Civil
Timezone Europe/Berlin (UTC+2.0)
Stats Elevation 464 ft / 141 m (AMSL)
Location 51.422631° 12.236042°
Runways 2
Magnetic Variation 3.452° E

METAR

EDDP 211120Z 08015KT 060V120 CAVOK 21/06 Q1019 TEMPO 09015G25KT

Decode

TAF

TAF EDDP 210500Z 2106/2206 07008KT CAVOK BECMG 2106/2108 08013KT TEMPO 2110/2115 09015G25KT BECMG 2117/2119 08008KT

Decode

Departure Runways

ID Width Length Bearing (true) Bearing (mag) Surface Threshold Offset Overrun Length
08L 148 ft / 45 m 11,776 ft / 3,589 m 85.70° 82.25° Concrete 0 ft / 0 m 0 ft / 0 m
08R 197 ft / 60 m 11,777 ft / 3,590 m 85.68° 82.23° Concrete 0 ft / 0 m 0 ft / 0 m
26L 197 ft / 60 m 11,777 ft / 3,590 m 265.72° 262.27° Concrete 0 ft / 0 m 0 ft / 0 m
26R 148 ft / 45 m 11,776 ft / 3,589 m 265.74° 262.29° Concrete 0 ft / 0 m 0 ft / 0 m

EDDC

Details ICAO EDDC (DRS)
Name Dresden
Region Germany - Civil
Timezone Europe/Berlin (UTC+2.0)
Stats Elevation 752 ft / 229 m (AMSL)
Location 51.134366° 13.768065°
Runways 1
Magnetic Variation 3.855° E

METAR

EDDC 211120Z 09013KT 060V120 CAVOK 21/07 Q1019 TEMPO 09015G25KT

Decode

TAF

TAF EDDC 210500Z 2106/2206 08005KT CAVOK BECMG 2106/2109 09010KT TEMPO 2110/2118 09015G25KT BECMG 2117/2120 09005KT

Decode

Destination Runways

ID Width Length Bearing (true) Bearing (mag) Surface Threshold Offset Overrun Length
04 197 ft / 60 m 9,348 ft / 2,849 m 40.74° 36.89° Concrete 0 ft / 0 m 0 ft / 0 m
22 197 ft / 60 m 9,348 ft / 2,849 m 220.76° 216.91° Concrete 984 ft / 300 m 0 ft / 0 m

Approach Navaids

Runway Type Ident Frequency Range Bearing (true) Bearing (mag) Slope Elevation
04 Localiser IDRE 110.50 MHz 18 nm / 33 km 40.83° 36.98° - 703 ft / 214 m (AMSL)
04 Glidescope IDRE 110.50 MHz 10 nm / 19 km 40.83° 36.98° 3.00° 755 ft / 230 m (AMSL)
22 Localiser IDRW 109.70 MHz 18 nm / 33 km 220.81° 216.95° - 755 ft / 230 m (AMSL)
22 Glidescope IDRW 109.70 MHz 10 nm / 19 km 220.81° 216.95° 3.00° 703 ft / 214 m (AMSL)

Popular Alternatives